San Rafeal, Colorado
Current Conditions -  °F | °C
As of 3:52 AM on Thursday 23 Oct 2014 (Local Time) from KALS Reporting Station
Clear Clear  
Wind Chill: 31°   Ceiling: Unl
Heat Index: 31°   Visibility: 10mi
Dew Point: 27°   Wind: 3mph
Humidity: 85%   Direction: 230°SW
Pressure: 30.29"   Gusts: NA
Location:  37.1816°N, 106.262°W
Report Text: KALS 230952Z AUTO 23003KT 10SM CLR M01/M03 A3029 RMK AO2 SLP213 T10061028
Loading
Personal Weather Stations






























Interactive Weather Map
Tropical Storm Tracking
New forecast layout! Learn more

10-Day Weather Forecast

Advertisements
Track Severe Weather on mobile